Time;durP1;ratioP1;P1;durP2;ratioP2;P2;SDS_P1;SDS_P2;PMS_P1;PMS_P2;Temp;Humidity;BMP_temperature;BMP_pressure;BME280_temperature;BME280_humidity;BME280_pressure;Samples;Min_cycle;Max_cycle;Signal;HPM_P1;HPM_P2
2021/03/29 00:00:08;;;;;;;14.38;6.55;;;10.10;37.70;;;;;;5075795;28;20377;-77
2021/03/29 00:02:34;;;;;;;16.35;6.72;;;10.10;37.40;;;;;;5072698;28;20402;-79
2021/03/29 00:05:00;;;;;;;17.10;6.07;;;10.20;36.90;;;;;;5045892;28;20386;-80
2021/03/29 00:07:28;;;;;;;15.85;7.00;;;10.20;36.90;;;;;;5066213;28;20385;-78
2021/03/29 00:09:54;;;;;;;19.52;6.97;;;10.10;37.10;;;;;;5075375;28;20594;-76
2021/03/29 00:12:21;;;;;;;17.50;7.00;;;10.10;37.10;;;;;;5067314;28;20443;-80
2021/03/29 00:14:47;;;;;;;15.45;6.82;;;10.20;37.00;;;;;;5066825;28;20405;-78
2021/03/29 00:17:14;;;;;;;15.50;6.95;;;10.10;37.10;;;;;;5063547;28;20421;-79
2021/03/29 00:19:41;;;;;;;17.98;7.10;;;10.10;37.80;;;;;;5063669;28;20472;-79
2021/03/29 00:22:06;;;;;;;20.10;6.78;;;10.10;38.20;;;;;;5063161;28;20399;-79
2021/03/29 00:24:34;;;;;;;14.40;6.53;;;10.20;38.00;;;;;;5066602;28;20394;-77
2021/03/29 00:27:00;;;;;;;20.17;7.63;;;10.10;37.40;;;;;;5069434;28;20394;-77
2021/03/29 00:29:26;;;;;;;20.60;8.07;;;10.20;37.00;;;;;;5075659;28;20397;-78
2021/03/29 00:31:52;;;;;;;13.77;7.00;;;10.10;37.10;;;;;;5074802;28;20428;-77
2021/03/29 00:34:18;;;;;;;15.38;7.28;;;10.00;38.10;;;;;;5075242;28;20436;-77
2021/03/29 00:36:45;;;;;;;14.95;7.10;;;10.00;38.30;;;;;;5064196;28;20405;-78
2021/03/29 00:39:12;;;;;;;17.57;7.50;;;9.90;38.50;;;;;;5064090;28;20708;-78
2021/03/29 00:41:38;;;;;;;22.20;7.30;;;9.90;38.50;;;;;;5060429;28;20404;-78
2021/03/29 00:44:06;;;;;;;17.92;7.43;;;9.90;37.70;;;;;;5062823;28;20387;-78
2021/03/29 00:46:33;;;;;;;17.30;7.50;;;9.90;39.20;;;;;;5061045;28;20417;-78
2021/03/29 00:48:58;;;;;;;18.10;7.83;;;9.80;39.60;;;;;;5046716;28;20494;-77
2021/03/29 00:51:28;;;;;;;19.52;7.78;;;9.70;39.60;;;;;;5057220;28;20884;-77
2021/03/29 00:53:59;;;;;;;16.20;7.45;;;9.70;39.80;;;;;;5063067;28;20869;-78
2021/03/29 00:56:27;;;;;;;17.90;7.50;;;9.60;40.80;;;;;;5061448;28;20555;-77
2021/03/29 00:58:54;;;;;;;23.40;7.60;;;9.60;40.80;;;;;;5059918;28;20397;-79
2021/03/29 01:01:23;;;;;;;20.27;7.60;;;9.60;40.30;;;;;;5061157;28;20388;-78
2021/03/29 01:04:00;;;;;;;20.38;7.82;;;9.60;40.50;;;;;;5061040;28;20396;-78
2021/03/29 01:06:28;;;;;;;23.52;8.20;;;9.40;41.80;;;;;;5042237;28;20402;-78
2021/03/29 01:09:18;;;;;;;19.65;8.00;;;9.40;42.60;;;;;;5044720;28;20377;-79
2021/03/29 01:11:56;;;;;;;15.70;7.95;;;9.30;42.90;;;;;;5059834;28;20394;-78
2021/03/29 01:14:29;;;;;;;19.65;8.82;;;9.20;43.30;;;;;;5062156;28;20435;-78
2021/03/29 01:17:04;;;;;;;22.77;8.23;;;9.20;43.40;;;;;;5061641;28;20394;-80
2021/03/29 01:20:01;;;;;;;21.52;7.95;;;9.20;44.30;;;;;;5061625;28;20396;-78
2021/03/29 01:22:41;;;;;;;17.45;8.18;;;9.20;44.40;;;;;;5061878;28;20877;-78
2021/03/29 01:25:49;;;;;;;20.45;8.98;;;9.20;43.20;;;;;;5064123;28;20389;-78
2021/03/29 01:28:17;;;;;;;18.20;7.88;;;9.10;44.80;;;;;;5044097;28;20409;-78
2021/03/29 01:30:45;;;;;;;18.15;8.18;;;9.10;44.50;;;;;;5039442;28;20388;-79
2021/03/29 01:33:11;;;;;;;20.08;8.57;;;9.00;44.60;;;;;;5038444;28;20407;-77
2021/03/29 01:35:45;;;;;;;20.27;8.47;;;9.00;45.40;;;;;;5038413;28;20386;-79
2021/03/29 01:38:12;;;;;;;17.20;7.88;;;9.10;44.80;;;;;;5036251;28;20383;-79
2021/03/29 01:40:39;;;;;;;25.13;8.95;;;9.00;44.40;;;;;;5037073;28;20423;-79
2021/03/29 01:43:06;;;;;;;19.98;7.95;;;9.00;45.40;;;;;;5038985;28;20394;-77
2021/03/29 01:45:33;;;;;;;23.27;9.03;;;9.00;45.70;;;;;;5038004;28;20868;-80
2021/03/29 01:48:02;;;;;;;25.25;9.25;;;8.90;46.40;;;;;;5055608;28;20397;-78
2021/03/29 01:50:29;;;;;;;18.58;8.88;;;8.90;45.90;;;;;;5059171;28;20393;-78
2021/03/29 01:52:57;;;;;;;21.60;9.23;;;8.90;46.20;;;;;;5059108;28;20473;-79
2021/03/29 01:55:24;;;;;;;19.83;8.85;;;8.90;46.30;;;;;;5060239;28;20948;-78
2021/03/29 01:57:50;;;;;;;19.20;9.25;;;8.80;46.60;;;;;;5059507;28;20397;-78
2021/03/29 02:00:21;;;;;;;17.25;8.77;;;8.90;46.60;;;;;;5058716;28;20389;-79
2021/03/29 02:02:47;;;;;;;26.55;9.70;;;8.80;46.70;;;;;;5057801;28;20389;-79
2021/03/29 02:05:14;;;;;;;25.42;9.60;;;8.80;47.30;;;;;;5059081;28;20386;-78
2021/03/29 02:07:41;;;;;;;20.67;9.60;;;8.70;48.50;;;;;;5059315;28;20381;-79
2021/03/29 02:10:23;;;;;;;22.73;9.65;;;8.80;47.60;;;;;;5057866;28;20389;-79
2021/03/29 02:12:49;;;;;;;24.00;9.57;;;8.70;48.30;;;;;;5054007;28;20866;-78
2021/03/29 02:15:21;;;;;;;25.02;9.07;;;8.70;48.60;;;;;;5053348;28;20393;-78
2021/03/29 02:17:50;;;;;;;19.05;9.88;;;8.70;48.10;;;;;;5056369;28;20400;-77
2021/03/29 02:20:17;;;;;;;20.88;9.20;;;8.70;48.10;;;;;;5053869;28;20392;-78
2021/03/29 02:22:46;;;;;;;20.58;9.55;;;8.80;48.00;;;;;;5052814;28;20385;-79
2021/03/29 02:25:12;;;;;;;23.40;9.70;;;8.80;47.90;;;;;;5052720;28;20793;-78
2021/03/29 02:27:38;;;;;;;20.55;9.90;;;8.80;47.10;;;;;;5051406;28;20755;-78
2021/03/29 02:30:10;;;;;;;26.55;10.50;;;8.80;47.40;;;;;;5052461;28;20397;-79
2021/03/29 02:32:45;;;;;;;24.17;9.73;;;8.70;47.50;;;;;;5052703;28;20800;-79
2021/03/29 02:35:12;;;;;;;29.15;9.50;;;8.70;47.90;;;;;;5052667;28;20392;-78
2021/03/29 02:37:48;;;;;;;23.05;10.60;;;8.80;47.20;;;;;;5053327;28;20382;-78
2021/03/29 02:40:16;;;;;;;26.98;10.60;;;8.70;47.50;;;;;;5053550;28;20905;-78
2021/03/29 02:42:42;;;;;;;22.90;9.80;;;8.70;48.10;;;;;;5060535;28;20435;-79
2021/03/29 02:45:10;;;;;;;24.20;10.50;;;8.70;48.10;;;;;;5060763;28;20472;-79
2021/03/29 02:47:40;;;;;;;22.73;9.77;;;8.70;47.80;;;;;;5058729;28;20527;-79
2021/03/29 02:50:11;;;;;;;24.60;10.05;;;8.80;46.50;;;;;;5053041;28;20405;-78
2021/03/29 02:52:41;;;;;;;23.35;9.40;;;8.80;46.60;;;;;;5054535;28;20802;-77
2021/03/29 02:55:11;;;;;;;28.80;10.10;;;8.80;46.00;;;;;;5055082;28;20482;-79
2021/03/29 02:57:38;;;;;;;22.08;10.40;;;8.80;46.50;;;;;;5055655;28;20761;-79
2021/03/29 03:00:13;;;;;;;23.33;9.18;;;8.80;46.00;;;;;;5055380;28;20439;-79
2021/03/29 03:02:40;;;;;;;25.95;9.60;;;8.70;47.10;;;;;;5057548;28;20464;-79
2021/03/29 03:05:07;;;;;;;21.95;9.77;;;8.70;46.40;;;;;;5055806;28;20377;-78
2021/03/29 03:07:35;;;;;;;19.02;9.60;;;8.60;47.00;;;;;;5057543;28;20408;-78
2021/03/29 03:10:03;;;;;;;27.67;9.37;;;8.60;47.80;;;;;;5057722;28;20401;-78
2021/03/29 03:12:30;;;;;;;21.52;9.48;;;8.50;48.50;;;;;;5063144;28;20405;-79
2021/03/29 03:14:56;;;;;;;20.77;8.80;;;8.50;47.90;;;;;;5069789;28;20409;-79
2021/03/29 03:17:22;;;;;;;22.23;9.10;;;8.50;47.00;;;;;;5064474;28;20385;-78
2021/03/29 03:19:48;;;;;;;25.20;9.50;;;8.60;47.20;;;;;;5062927;28;20385;-78
2021/03/29 03:22:14;;;;;;;18.20;9.00;;;8.60;45.90;;;;;;5062803;28;20393;-79
2021/03/29 03:24:40;;;;;;;22.40;9.55;;;8.60;46.40;;;;;;5068976;28;20813;-79
2021/03/29 03:27:08;;;;;;;19.17;9.10;;;8.60;46.40;;;;;;5054264;28;20404;-78
2021/03/29 03:29:39;;;;;;;22.83;9.32;;;8.60;45.10;;;;;;5063215;28;20405;-79
2021/03/29 03:32:10;;;;;;;21.20;9.20;;;8.60;46.60;;;;;;5071717;28;20909;-80
2021/03/29 03:34:36;;;;;;;24.50;9.55;;;8.50;47.00;;;;;;5070062;28;20454;-79
2021/03/29 03:37:02;;;;;;;22.13;10.07;;;8.50;47.60;;;;;;5063406;28;20413;-78
2021/03/29 03:39:28;;;;;;;17.38;8.85;;;8.50;47.20;;;;;;5062398;28;20407;-78
2021/03/29 03:41:54;;;;;;;25.92;10.57;;;8.40;47.00;;;;;;5064792;28;20384;-78
2021/03/29 03:44:20;;;;;;;25.17;9.37;;;8.40;47.20;;;;;;5065741;28;20388;-79
2021/03/29 03:46:48;;;;;;;25.57;9.43;;;8.40;47.00;;;;;;5063081;28;20858;-79
2021/03/29 03:49:21;;;;;;;23.53;8.50;;;8.40;46.90;;;;;;5059474;28;20531;-77
2021/03/29 03:51:48;;;;;;;20.33;8.10;;;8.50;46.90;;;;;;5055789;28;20377;-77
2021/03/29 03:54:14;;;;;;;27.95;9.73;;;8.40;46.40;;;;;;5055134;28;20409;-79
2021/03/29 03:56:40;;;;;;;23.13;8.75;;;8.40;47.30;;;;;;5058218;28;20385;-79
2021/03/29 03:59:07;;;;;;;18.77;8.38;;;8.40;46.70;;;;;;5056138;28;20381;-80
2021/03/29 04:01:53;;;;;;;21.00;8.90;;;8.30;46.90;;;;;;5054739;28;20864;-79
2021/03/29 04:04:19;;;;;;;24.03;9.33;;;8.30;47.80;;;;;;5057874;28;20393;-78
2021/03/29 04:06:44;;;;;;;22.65;8.52;;;8.30;47.00;;;;;;5066211;28;20872;-79
2021/03/29 04:09:10;;;;;;;21.73;8.65;;;8.40;46.70;;;;;;5081194;28;20851;-80
2021/03/29 04:11:36;;;;;;;23.15;9.80;;;8.40;46.50;;;;;;5057324;28;20728;-78
2021/03/29 04:14:03;;;;;;;24.13;8.20;;;8.40;47.30;;;;;;5051364;28;20504;-79
2021/03/29 04:16:28;;;;;;;23.95;9.65;;;8.40;47.40;;;;;;5051710;28;20480;-79
2021/03/29 04:18:54;;;;;;;19.50;8.50;;;8.20;48.00;;;;;;5052595;28;20480;-77
2021/03/29 04:21:20;;;;;;;20.00;8.87;;;8.20;47.80;;;;;;5051444;28;20750;-78
2021/03/29 04:23:45;;;;;;;24.30;8.77;;;8.20;47.20;;;;;;5050773;28;20378;-78
2021/03/29 04:26:11;;;;;;;24.17;9.00;;;8.30;47.00;;;;;;5051069;28;20382;-80
2021/03/29 04:28:36;;;;;;;18.30;8.73;;;8.30;46.90;;;;;;5050907;28;20401;-77
2021/03/29 04:31:02;;;;;;;21.77;8.47;;;8.30;46.40;;;;;;5049513;28;20401;-77
2021/03/29 04:33:28;;;;;;;26.43;9.13;;;8.30;47.00;;;;;;5049501;28;20421;-77
2021/03/29 04:35:53;;;;;;;25.90;9.40;;;8.20;47.30;;;;;;5049776;28;20381;-79
2021/03/29 04:38:19;;;;;;;18.93;8.27;;;8.20;47.60;;;;;;5068409;28;20389;-79
2021/03/29 04:40:44;;;;;;;22.30;9.10;;;8.20;47.10;;;;;;5053854;28;20920;-78
2021/03/29 04:43:10;;;;;;;28.08;8.60;;;8.20;47.40;;;;;;5053460;28;20389;-77
2021/03/29 04:45:37;;;;;;;24.80;9.57;;;8.20;47.40;;;;;;5054161;28;20386;-77
2021/03/29 04:48:02;;;;;;;18.30;8.32;;;8.20;47.70;;;;;;5054408;28;20382;-77
2021/03/29 04:50:28;;;;;;;19.15;8.60;;;8.20;47.10;;;;;;5052997;28;20447;-76
2021/03/29 04:52:54;;;;;;;21.73;9.33;;;8.10;47.60;;;;;;5053462;28;20508;-77
2021/03/29 04:55:20;;;;;;;19.63;8.90;;;8.10;48.70;;;;;;5053332;28;20391;-79
2021/03/29 04:57:46;;;;;;;23.65;9.20;;;8.10;48.00;;;;;;5052945;28;20870;-78
2021/03/29 05:00:13;;;;;;;24.65;9.80;;;8.20;47.20;;;;;;5053483;28;20381;-78
2021/03/29 05:02:39;;;;;;;24.13;8.80;;;8.10;46.40;;;;;;5053482;28;20388;-78
2021/03/29 05:05:06;;;;;;;25.80;9.75;;;8.10;47.30;;;;;;5053308;28;20885;-78
2021/03/29 05:07:32;;;;;;;16.48;8.07;;;8.10;47.20;;;;;;5053639;28;20393;-78
2021/03/29 05:09:58;;;;;;;22.20;8.70;;;8.10;46.90;;;;;;5053550;28;20473;-77
2021/03/29 05:12:23;;;;;;;23.15;9.32;;;8.00;48.40;;;;;;5053689;28;20408;-77
2021/03/29 05:14:50;;;;;;;22.20;8.90;;;7.90;48.60;;;;;;5053114;28;20413;-77
2021/03/29 05:17:17;;;;;;;18.35;8.80;;;8.00;48.50;;;;;;5053974;28;20805;-79
2021/03/29 05:19:42;;;;;;;23.90;9.02;;;8.00;49.00;;;;;;5053640;28;20393;-78
2021/03/29 05:22:09;;;;;;;21.38;9.10;;;8.00;48.90;;;;;;5053012;28;20381;-78
2021/03/29 05:24:36;;;;;;;22.73;8.65;;;8.00;48.60;;;;;;5053134;28;20398;-78
2021/03/29 05:27:02;;;;;;;25.13;9.43;;;8.10;48.00;;;;;;5053007;28;20704;-77
2021/03/29 05:29:28;;;;;;;20.33;8.93;;;8.00;47.80;;;;;;5052969;28;20388;-78
2021/03/29 05:31:58;;;;;;;19.05;8.73;;;8.10;49.20;;;;;;5053101;28;20401;-78
2021/03/29 05:34:24;;;;;;;21.83;9.13;;;8.10;48.40;;;;;;5054398;28;20452;-77
2021/03/29 05:36:51;;;;;;;23.10;8.60;;;8.10;47.70;;;;;;5053298;28;20397;-76
2021/03/29 05:39:17;;;;;;;19.70;8.77;;;8.10;46.70;;;;;;5053470;28;20378;-76
2021/03/29 05:41:43;;;;;;;23.83;9.80;;;8.20;47.80;;;;;;5053775;28;20378;-77
2021/03/29 05:44:09;;;;;;;19.23;8.30;;;8.20;48.00;;;;;;5053748;28;20385;-77
2021/03/29 05:46:40;;;;;;;17.42;8.75;;;8.30;46.40;;;;;;5053763;28;20392;-77
2021/03/29 05:49:06;;;;;;;22.90;8.50;;;8.30;45.50;;;;;;5051249;28;20400;-75
2021/03/29 05:51:36;;;;;;;27.30;9.27;;;8.40;45.40;;;;;;5052053;28;20389;-77
2021/03/29 05:54:03;;;;;;;20.08;8.95;;;8.40;44.40;;;;;;5053039;28;20417;-76
2021/03/29 05:56:31;;;;;;;17.13;7.97;;;8.40;44.10;;;;;;5053078;28;20474;-76
2021/03/29 06:01:51;;;;;;;17.50;8.93;;;8.60;44.60;;;;;;5052852;28;20821;-76
2021/03/29 06:04:47;;;;;;;27.00;9.07;;;8.70;44.60;;;;;;5052586;28;20389;-76
2021/03/29 06:07:15;;;;;;;20.92;8.75;;;8.70;43.20;;;;;;5051148;28;20897;-76
2021/03/29 06:09:42;;;;;;;20.73;8.35;;;8.70;42.20;;;;;;5052511;28;20417;-78
2021/03/29 06:12:09;;;;;;;21.50;8.75;;;8.80;42.70;;;;;;5052127;28;20400;-77
2021/03/29 06:14:35;;;;;;;20.60;8.50;;;8.80;43.60;;;;;;5052796;28;20455;-77
2021/03/29 06:17:07;;;;;;;18.55;8.20;;;8.90;41.00;;;;;;5052800;28;20508;-78
2021/03/29 06:19:54;;;;;;;23.00;9.40;;;9.00;41.60;;;;;;5052971;28;20496;-76
2021/03/29 06:22:29;;;;;;;21.42;8.52;;;9.00;41.60;;;;;;5055028;28;21079;-76
2021/03/29 06:25:02;;;;;;;23.92;9.55;;;9.10;40.40;;;;;;5053731;28;20430;-76
2021/03/29 06:27:30;;;;;;;24.88;9.07;;;9.20;40.10;;;;;;5053285;28;20893;-76
2021/03/29 06:30:17;;;;;;;23.73;9.02;;;9.20;40.90;;;;;;5052880;28;20390;-78
2021/03/29 06:33:06;;;;;;;22.85;9.38;;;9.30;39.70;;;;;;5051059;28;20397;-76
2021/03/29 06:35:39;;;;;;;21.23;9.20;;;9.40;39.30;;;;;;5053299;28;20727;-75
2021/03/29 06:38:27;;;;;;;28.33;9.50;;;9.50;38.40;;;;;;5052491;28;20716;-76
2021/03/29 06:40:59;;;;;;;18.55;9.07;;;9.60;39.20;;;;;;5052347;28;20392;-77
2021/03/29 06:43:30;;;;;;;23.83;9.45;;;9.60;39.30;;;;;;5054398;28;20451;-77
2021/03/29 06:45:57;;;;;;;19.23;9.40;;;9.80;36.70;;;;;;5053646;28;20389;-77
2021/03/29 06:48:34;;;;;;;20.45;9.00;;;9.90;37.20;;;;;;5059780;28;20385;-77
2021/03/29 06:51:18;;;;;;;25.50;9.70;;;10.00;37.10;;;;;;5070771;28;20392;-77
2021/03/29 06:53:55;;;;;;;23.10;9.50;;;10.10;37.00;;;;;;5071129;28;20393;-77
2021/03/29 06:56:51;;;;;;;33.42;9.68;;;10.30;35.80;;;;;;5069839;28;20397;-77
2021/03/29 06:59:22;;;;;;;25.02;8.88;;;10.30;35.30;;;;;;5070707;28;20400;-76
2021/03/29 07:01:53;;;;;;;21.58;9.10;;;10.50;34.00;;;;;;5070211;28;20397;-76
2021/03/29 07:04:26;;;;;;;21.00;9.55;;;10.60;34.90;;;;;;5070747;28;20387;-75
2021/03/29 07:06:53;;;;;;;24.58;9.20;;;10.70;34.30;;;;;;5067878;28;20412;-76
2021/03/29 07:09:20;;;;;;;26.70;9.00;;;10.70;33.00;;;;;;5070072;28;20377;-76
2021/03/29 07:11:46;;;;;;;26.58;8.95;;;10.90;33.20;;;;;;5062993;28;20396;-76
2021/03/29 07:14:17;;;;;;;20.77;8.40;;;11.00;32.90;;;;;;5052406;28;20401;-77
2021/03/29 07:16:45;;;;;;;20.85;9.27;;;11.10;31.90;;;;;;5051923;28;20401;-78
2021/03/29 07:19:10;;;;;;;22.80;8.70;;;11.30;31.20;;;;;;5050944;28;20893;-77
2021/03/29 07:21:37;;;;;;;16.85;7.90;;;11.50;30.70;;;;;;5052017;28;20389;-76
2021/03/29 07:24:08;;;;;;;24.95;7.85;;;11.60;30.10;;;;;;5052660;28;20806;-77
2021/03/29 07:26:48;;;;;;;20.05;7.88;;;11.90;28.70;;;;;;5051871;28;20476;-77
2021/03/29 07:29:24;;;;;;;22.52;7.57;;;12.00;28.30;;;;;;5064593;22;20437;-79
2021/03/29 07:32:01;;;;;;;18.77;7.93;;;12.10;27.60;;;;;;5051024;28;20375;-79
2021/03/29 07:34:48;;;;;;;19.58;7.70;;;12.30;27.90;;;;;;5050429;28;20489;-76
2021/03/29 07:37:37;;;;;;;19.92;7.80;;;12.50;27.00;;;;;;5027668;28;20406;-77
2021/03/29 07:40:21;;;;;;;16.02;6.88;;;12.60;25.60;;;;;;5022838;28;20393;-76
2021/03/29 07:42:48;;;;;;;21.17;6.97;;;12.70;25.20;;;;;;5019465;28;20391;-76
2021/03/29 07:45:26;;;;;;;18.43;6.70;;;12.80;25.10;;;;;;5013240;28;20936;-75
2021/03/29 07:47:54;;;;;;;17.45;6.78;;;12.90;24.70;;;;;;5013144;28;20441;-77
2021/03/29 07:50:43;;;;;;;17.00;6.95;;;13.00;26.50;;;;;;5016655;28;20411;-77
2021/03/29 07:53:20;;;;;;;16.50;6.50;;;13.00;25.10;;;;;;5018461;28;20420;-82
2021/03/29 07:55:48;;;;;;;15.27;6.10;;;13.10;25.00;;;;;;5019379;28;20388;-77
2021/03/29 07:58:17;;;;;;;17.67;5.67;;;13.10;24.40;;;;;;5015231;28;20849;-76
2021/03/29 08:00:43;;;;;;;16.02;6.28;;;13.20;24.20;;;;;;5012481;28;20393;-76
2021/03/29 08:03:12;;;;;;;13.48;6.25;;;13.30;24.00;;;;;;5027473;28;20384;-76
2021/03/29 08:05:41;;;;;;;19.42;6.35;;;13.40;23.90;;;;;;5011843;28;20385;-76
2021/03/29 08:08:25;;;;;;;16.25;5.90;;;13.40;23.40;;;;;;5013880;28;20390;-76
2021/03/29 08:11:10;;;;;;;12.93;5.97;;;13.40;23.50;;;;;;5012306;28;20750;-77
2021/03/29 08:13:56;;;;;;;16.48;6.10;;;13.40;23.60;;;;;;5014362;28;20417;-76
2021/03/29 08:16:22;;;;;;;20.20;7.00;;;13.50;23.60;;;;;;5015771;28;20427;-76
2021/03/29 08:19:20;;;;;;;16.57;6.27;;;13.60;23.70;;;;;;5015416;28;20413;-76
2021/03/29 08:22:01;;;;;;;16.85;6.43;;;13.70;24.10;;;;;;5011148;28;20425;-75
2021/03/29 08:24:43;;;;;;;15.25;5.72;;;13.80;23.80;;;;;;5018681;28;20403;-82
2021/03/29 08:27:29;;;;;;;18.83;5.63;;;13.90;23.40;;;;;;5029337;28;20396;-81
2021/03/29 08:30:15;;;;;;;15.05;5.30;;;14.10;22.20;;;;;;5026023;28;20408;-74
2021/03/29 08:32:41;;;;;;;11.90;5.13;;;14.20;22.00;;;;;;5023946;28;20384;-79
2021/03/29 08:35:11;;;;;;;13.07;4.70;;;14.30;21.70;;;;;;5024330;28;20419;-78
2021/03/29 08:37:51;;;;;;;17.58;5.88;;;14.20;22.20;;;;;;5010919;28;20437;-77
2021/03/29 08:40:33;;;;;;;16.55;4.80;;;14.20;21.90;;;;;;5004189;28;20414;-80
2021/03/29 08:43:04;;;;;;;11.88;4.40;;;14.30;21.00;;;;;;5007187;28;20458;-79
2021/03/29 08:45:34;;;;;;;10.88;4.25;;;14.50;22.40;;;;;;5030421;28;21203;-80
2021/03/29 08:48:04;;;;;;;12.57;4.93;;;14.60;20.60;;;;;;5024567;28;20405;-84
2021/03/29 08:50:36;;;;;;;15.93;3.60;;;14.60;20.60;;;;;;5030296;28;20867;-79
2021/03/29 08:53:06;;;;;;;15.45;4.50;;;14.70;19.30;;;;;;5034672;28;20431;-80
2021/03/29 08:55:38;;;;;;;12.05;4.00;;;14.70;20.00;;;;;;5025713;28;20491;-78
2021/03/29 08:58:05;;;;;;;7.63;3.50;;;14.70;19.70;;;;;;5019339;28;20402;-80
2021/03/29 09:00:41;;;;;;;8.55;3.85;;;14.80;19.30;;;;;;5023538;28;20401;-80
2021/03/29 09:03:23;;;;;;;9.43;3.65;;;14.90;17.30;;;;;;5019685;28;20396;-79
2021/03/29 09:05:49;;;;;;;12.68;4.38;;;15.00;17.20;;;;;;5018368;28;20389;-80
2021/03/29 09:08:16;;;;;;;10.15;3.47;;;15.10;16.20;;;;;;5020593;28;20412;-80
2021/03/29 09:10:43;;;;;;;11.25;4.03;;;15.20;15.20;;;;;;5017893;28;20458;-81
2021/03/29 09:13:12;;;;;;;15.30;4.00;;;15.20;15.00;;;;;;5019602;28;20395;-80
2021/03/29 09:15:43;;;;;;;17.05;4.80;;;15.20;15.20;;;;;;5018627;28;20400;-80
2021/03/29 09:18:17;;;;;;;11.15;4.07;;;15.10;15.20;;;;;;5021050;28;20388;-80
2021/03/29 09:20:46;;;;;;;10.52;3.70;;;15.10;15.20;;;;;;5028558;28;20411;-79
2021/03/29 09:23:13;;;;;;;8.45;3.30;;;15.10;14.60;;;;;;5032757;28;20387;-79
2021/03/29 09:25:45;;;;;;;11.32;3.97;;;15.20;13.20;;;;;;5031224;28;20396;-83
2021/03/29 09:28:12;;;;;;;14.77;3.20;;;15.40;12.60;;;;;;5024411;28;20397;-83
2021/03/29 09:30:38;;;;;;;8.77;3.20;;;15.50;13.10;;;;;;5006349;28;20413;-82
2021/03/29 09:33:04;;;;;;;9.68;3.38;;;15.50;12.40;;;;;;5020945;28;20393;-84
2021/03/29 09:35:30;;;;;;;9.93;3.70;;;15.60;11.30;;;;;;5023424;28;20399;-82
2021/03/29 09:37:57;;;;;;;15.43;3.50;;;15.70;11.60;;;;;;5023050;28;20400;-85
2021/03/29 09:40:23;;;;;;;13.43;3.38;;;15.80;10.80;;;;;;5022172;28;20500;-82
2021/03/29 09:42:53;;;;;;;12.93;3.30;;;15.90;11.00;;;;;;5023213;28;20396;-84
2021/03/29 09:45:30;;;;;;;9.50;3.80;;;16.00;11.00;;;;;;5023656;28;20407;-82
2021/03/29 09:48:04;;;;;;;12.68;3.83;;;16.00;10.30;;;;;;5025574;28;20447;-82
2021/03/29 09:50:42;;;;;;;10.85;4.00;;;16.00;9.90;;;;;;5023001;28;20460;-83
2021/03/29 09:53:25;;;;;;;11.18;3.80;;;16.00;9.80;;;;;;5022358;28;20396;-81
2021/03/29 09:55:54;;;;;;;8.87;3.30;;;16.10;9.90;;;;;;5022385;28;20396;-81
2021/03/29 09:58:44;;;;;;;8.10;3.73;;;16.20;9.50;;;;;;5016442;28;20409;-82
2021/03/29 10:01:26;;;;;;;12.57;4.90;;;16.30;8.40;;;;;;5000352;28;20401;-82
2021/03/29 10:04:00;;;;;;;8.00;3.30;;;16.50;9.30;;;;;;5000920;28;20406;-82
2021/03/29 10:06:28;;;;;;;14.07;3.70;;;16.60;8.50;;;;;;5011373;28;20401;-82
2021/03/29 10:09:08;;;;;;;9.73;3.40;;;16.60;9.10;;;;;;5029361;28;20476;-78
2021/03/29 10:11:48;;;;;;;10.38;3.10;;;16.60;8.00;;;;;;5023986;28;20880;-81
2021/03/29 10:14:18;;;;;;;11.15;3.40;;;16.70;7.70;;;;;;5021106;28;20520;-81
2021/03/29 10:16:49;;;;;;;3.97;2.80;;;16.80;5.60;;;;;;5022674;28;20416;-80
2021/03/29 10:19:18;;;;;;;10.48;3.20;;;16.90;5.50;;;;;;5022014;28;20411;-82
2021/03/29 10:22:03;;;;;;;7.40;3.05;;;17.00;5.20;;;;;;5024972;28;20396;-77
2021/03/29 10:24:33;;;;;;;9.07;3.30;;;17.00;5.00;;;;;;5030529;28;20413;-79
2021/03/29 10:27:02;;;;;;;7.55;3.30;;;17.10;5.00;;;;;;5013716;28;20404;-77
2021/03/29 10:29:28;;;;;;;7.28;3.28;;;17.20;4.70;;;;;;5016949;28;20929;-77
2021/03/29 10:31:54;;;;;;;8.32;3.20;;;17.20;4.40;;;;;;5018693;28;20428;-78
2021/03/29 10:34:20;;;;;;;9.05;2.90;;;17.30;4.60;;;;;;5025370;28;20413;-78
2021/03/29 10:36:46;;;;;;;10.18;3.30;;;17.30;4.60;;;;;;5028205;28;20417;-77
2021/03/29 10:39:12;;;;;;;6.05;3.10;;;17.30;4.40;;;;;;5025591;28;20388;-78
2021/03/29 10:41:37;;;;;;;9.65;3.03;;;17.40;4.70;;;;;;5029139;28;20400;-77
2021/03/29 10:44:03;;;;;;;10.40;3.60;;;17.40;4.00;;;;;;5029662;28;20381;-80
2021/03/29 10:46:31;;;;;;;12.27;3.55;;;17.40;3.90;;;;;;5022600;28;20417;-77
2021/03/29 10:48:56;;;;;;;10.82;3.05;;;17.50;3.60;;;;;;5021206;28;20905;-79
2021/03/29 10:51:22;;;;;;;9.27;3.10;;;17.50;3.50;;;;;;5021290;28;20498;-78
2021/03/29 10:53:48;;;;;;;11.95;3.30;;;17.60;3.80;;;;;;5020763;28;20439;-79
2021/03/29 10:56:14;;;;;;;7.43;3.00;;;17.60;3.30;;;;;;5021153;28;20385;-80
2021/03/29 10:58:40;;;;;;;9.48;2.80;;;17.70;3.60;;;;;;5022849;28;20419;-79
2021/03/29 11:01:25;;;;;;;9.10;3.00;;;17.80;2.20;;;;;;5023422;28;20392;-85
2021/03/29 11:03:50;;;;;;;5.55;2.90;;;17.90;2.90;;;;;;5025621;28;20939;-81
2021/03/29 11:06:16;;;;;;;10.40;2.80;;;17.90;2.70;;;;;;5021598;28;20440;-76
2021/03/29 11:08:41;;;;;;;6.63;2.90;;;18.00;1.60;;;;;;5014408;28;20401;-76
2021/03/29 11:11:10;;;;;;;5.43;2.97;;;18.00;1.70;;;;;;5031699;28;20400;-79
2021/03/29 11:13:39;;;;;;;9.43;3.05;;;18.10;2.20;;;;;;5029469;28;20754;-77
2021/03/29 11:16:07;;;;;;;12.02;3.53;;;18.10;1.90;;;;;;5021942;28;20881;-79
2021/03/29 11:18:34;;;;;;;8.10;3.05;;;18.20;1.80;;;;;;5024995;28;20389;-79
2021/03/29 11:21:04;;;;;;;7.22;3.35;;;18.20;2.10;;;;;;5023570;28;20412;-80
2021/03/29 11:23:30;;;;;;;7.50;2.63;;;18.40;2.40;;;;;;5012556;28;20408;-80
2021/03/29 11:25:56;;;;;;;10.00;3.15;;;18.40;1.50;;;;;;5020748;28;20401;-78
2021/03/29 11:28:22;;;;;;;8.07;3.10;;;18.40;1.40;;;;;;5027196;28;20408;-74
2021/03/29 11:30:49;;;;;;;8.23;2.80;;;18.50;1.60;;;;;;5027682;28;20436;-77
2021/03/29 11:33:14;;;;;;;5.78;3.30;;;18.60;1.00;;;;;;5027125;28;20393;-78
2021/03/29 11:35:40;;;;;;;6.25;2.90;;;18.50;1.00;;;;;;5024436;28;20420;-78
2021/03/29 11:38:06;;;;;;;6.50;3.20;;;18.50;2.00;;;;;;5023443;28;20493;-78
2021/03/29 11:40:32;;;;;;;12.85;3.10;;;18.60;1.50;;;;;;5022783;28;20388;-80
2021/03/29 11:42:58;;;;;;;6.93;3.17;;;18.80;1.60;;;;;;5023842;28;20401;-79
2021/03/29 11:45:24;;;;;;;11.27;3.30;;;18.70;1.00;;;;;;5025333;28;20495;-79
2021/03/29 11:47:50;;;;;;;7.43;2.72;;;18.70;1.00;;;;;;5027690;28;20415;-79
2021/03/29 11:50:15;;;;;;;8.20;3.00;;;18.80;1.00;;;;;;5025765;28;20408;-77
2021/03/29 11:52:42;;;;;;;6.45;3.10;;;18.80;1.00;;;;;;5030187;28;20407;-79
2021/03/29 11:55:09;;;;;;;11.50;3.70;;;18.90;1.00;;;;;;5023504;28;20408;-77
2021/03/29 11:57:39;;;;;;;8.43;3.20;;;19.00;1.00;;;;;;5026910;28;20411;-76
2021/03/29 12:00:15;;;;;;;6.70;2.92;;;19.00;1.00;;;;;;5024800;28;20439;-78
2021/03/29 12:02:54;;;;;;;8.95;2.90;;;19.10;1.00;;;;;;5007135;28;20951;-78
2021/03/29 12:05:31;;;;;;;9.20;2.97;;;19.00;1.00;;;;;;5019478;28;20893;-80
2021/03/29 12:08:13;;;;;;;13.80;3.10;;;19.10;1.00;;;;;;5025164;28;20392;-78
2021/03/29 12:13:29;;;;;;;7.10;2.70;;;19.20;1.00;;;;;;5024360;28;20440;-81
2021/03/29 12:15:55;;;;;;;8.63;3.30;;;19.20;1.00;;;;;;5014840;28;20392;-79
2021/03/29 12:21:10;;;;;;;8.30;3.20;;;19.30;1.00;;;;;;5026675;28;20416;-79
2021/03/29 12:23:39;;;;;;;7.03;3.00;;;19.40;1.00;;;;;;5025374;28;20895;-77
2021/03/29 12:26:09;;;;;;;6.30;3.20;;;19.40;1.00;;;;;;5028505;28;20539;-79
2021/03/29 12:28:46;;;;;;;7.23;3.20;;;19.50;1.00;;;;;;5032105;28;20368;-78
2021/03/29 12:31:13;;;;;;;10.95;3.33;;;19.60;1.00;;;;;;5031803;28;20405;-78
2021/03/29 12:33:43;;;;;;;7.47;2.90;;;19.70;1.00;;;;;;5033771;28;20399;-80
2021/03/29 12:36:11;;;;;;;9.25;2.88;;;19.70;1.00;;;;;;5024711;28;20400;-79
2021/03/29 12:38:42;;;;;;;6.95;2.80;;;19.80;1.00;;;;;;5027011;28;20397;-80
2021/03/29 12:41:13;;;;;;;8.07;2.45;;;19.80;1.00;;;;;;5029601;28;20434;-83
2021/03/29 12:43:50;;;;;;;5.10;2.97;;;19.90;1.00;;;;;;5035868;28;20432;-82
2021/03/29 12:46:18;;;;;;;4.18;2.80;;;20.00;1.00;;;;;;5036724;28;20399;-84
2021/03/29 12:48:45;;;;;;;5.88;3.00;;;20.00;1.00;;;;;;5034211;28;20393;-84
2021/03/29 12:51:13;;;;;;;10.38;3.13;;;20.00;1.00;;;;;;5036228;28;20436;-81
2021/03/29 12:53:39;;;;;;;8.25;2.72;;;20.10;1.00;;;;;;5037709;28;20412;-81
2021/03/29 12:56:05;;;;;;;9.15;2.90;;;20.10;1.00;;;;;;5037494;28;20407;-83
2021/03/29 12:58:38;;;;;;;6.85;2.88;;;20.20;1.00;;;;;;5034806;28;20401;-82
2021/03/29 13:01:09;;;;;;;8.52;2.95;;;20.10;1.00;;;;;;5037521;28;20435;-83
2021/03/29 13:03:45;;;;;;;6.63;3.00;;;20.00;1.00;;;;;;5038003;28;20417;-82
2021/03/29 13:06:29;;;;;;;4.60;3.10;;;20.20;1.00;;;;;;5036519;28;20431;-83
2021/03/29 13:09:01;;;;;;;5.78;2.63;;;20.30;1.00;;;;;;5032904;28;20401;-79